METAR Data
IDs: Format: Raw Decoded Include TAF

Data at: 0255 UTC 19 Oct 2021

KAUS 190153Z 15005KT 10SM FEW200 BKN250 18/11 A3004 RMK AO2 SLP169 T01830111